Главная страница
METAR-TAF:

METAR-TAF

Аэропорты :

Векшё, Швеция

широта: 56-51N, долгота: 014-50E, высота над уровнем моря: 199 м

Текущие метеонаблюдения

Эта сводка был подготовлена 30 минут назад, в 23:50 UTC
Ветер 4 Узел от западно-северо-западный
Температура 6°C
Влажность 61%
Давление 1027 hPa
Видимость 10 км и более

METAR: ESMX 202350Z AUTO 29004KT 9999 NCD 06/M01 Q1027

Время: 02:20 (00:20 UTC)

Прогноз

Эта сводка был подготовлена 9 часа и 50 минут назад, в 14:30 UTC
Прогноз действительный с 20-го 15 UTC до 20-го 18 UTC
Ветер 4 Узел от северо-восточный
Видимость 10 км и более
Нет облачности ниже 1500 м, и нет кучево-дождевой облачности

TAF: ESMX 201430Z 2015/2018 04004KT CAVOK

Метеонаблюдения и прогнозы для более 4000 аэропортов (сводки METAR и TAF).

Имеющиеся станции представлены на карте желтыми и красными точками.

Чтобы увидеть название станции, наведите на нее мышь.

Затем щелкните, чтобы увидеть метеонаблюдения и метеопрогнозы.

Управление картой: чтобы увеличить масштаб, щелкните зеленые кнопки с черным крестиком; чтобы уменьшить масштаб, щелкните зеленую кнопку с тире; для просмотра соседних карт щелкайте зеленые стрелки.


METAR-TAF: